METAR|ÜBERSETZT|TAF
EDHK 301520Z 24010KT CAVOK 14/08 Q1010
Login|Impressum|Kontakt



Der Flugplatz Kiel-Holtenau




Wir haben vielleicht nicht den besten, nicht den größten, aber in jedem Fall einen der schönsten Flugplätze Deutschlands. Der Flugplatz Kiel-Holtenau liegt im Norden Kiels auf der Westseite der Kieler Förde nördlich der Schleusen des Nord-Ostseekanals. > Anfahrt > Lageplan > www.airport-kiel.de